createdAt,value
2022-10-22T00:00:46.696Z,99.99
2022-10-22T00:01:46.535Z,99.99
2022-10-22T00:02:46.697Z,99.99
2022-10-22T00:03:46.546Z,99.99
2022-10-22T00:04:46.446Z,99.99
2022-10-22T00:05:46.314Z,99.99
2022-10-22T00:06:46.832Z,99.99
2022-10-22T00:07:46.503Z,99.99
2022-10-22T00:08:46.492Z,99.99
2022-10-22T00:09:46.302Z,99.99
2022-10-22T00:10:46.537Z,99.99
2022-10-22T00:11:46.785Z,99.99
2022-10-22T00:12:46.130Z,99.99
2022-10-22T00:14:46.098Z,99.99
2022-10-22T00:15:46.407Z,99.99
2022-10-22T00:16:46.168Z,99.99
2022-10-22T00:17:46.460Z,99.99
2022-10-22T00:18:46.032Z,99.99
2022-10-22T00:19:46.065Z,99.99
2022-10-22T00:20:46.087Z,99.99
2022-10-22T00:21:46.535Z,99.99
2022-10-22T00:22:46.057Z,99.99
2022-10-22T00:23:46.332Z,99.99
2022-10-22T00:24:46.184Z,99.99
2022-10-22T00:25:46.447Z,99.99
2022-10-22T00:26:46.100Z,99.99
2022-10-22T00:27:46.147Z,99.99
2022-10-22T00:28:45.942Z,99.99
2022-10-22T00:29:46.005Z,99.99
2022-10-22T00:30:45.932Z,99.99
2022-10-22T00:31:46.096Z,99.99
2022-10-22T00:32:46.031Z,99.99
2022-10-22T00:33:45.960Z,99.99
2022-10-22T00:34:45.858Z,99.99
2022-10-22T00:35:46.651Z,99.99
2022-10-22T00:36:45.854Z,99.99
2022-10-22T00:37:46.191Z,99.99
2022-10-22T00:38:46.248Z,99.99
2022-10-22T00:39:45.882Z,99.99
2022-10-22T00:40:45.846Z,99.99
2022-10-22T00:41:46.539Z,99.99
2022-10-22T00:42:46.081Z,99.99
2022-10-22T00:43:45.881Z,99.99
2022-10-22T00:44:45.787Z,99.99
2022-10-22T00:45:46.048Z,99.99
2022-10-22T00:46:46.269Z,99.99
2022-10-22T00:47:46.400Z,99.99
2022-10-22T00:48:45.861Z,99.99
2022-10-22T00:49:46.045Z,99.99
2022-10-22T00:50:45.848Z,99.99
2022-10-22T00:51:45.840Z,99.99
2022-10-22T00:52:45.935Z,99.99
2022-10-22T00:53:45.713Z,99.99
2022-10-22T00:54:46.090Z,99.99
2022-10-22T00:55:45.638Z,99.99
2022-10-22T00:56:45.661Z,99.99
2022-10-22T00:57:45.679Z,99.99
2022-10-22T00:58:45.848Z,99.99
2022-10-22T00:59:45.670Z,99.99
2022-10-22T01:00:46.063Z,99.99
2022-10-22T01:01:45.559Z,99.99
2022-10-22T01:02:45.604Z,99.99
2022-10-22T01:03:45.660Z,99.99
2022-10-22T01:04:45.571Z,99.99
2022-10-22T01:05:45.559Z,99.99
2022-10-22T01:06:45.663Z,99.99
2022-10-22T01:07:45.541Z,99.99
2022-10-22T01:08:45.527Z,99.99
2022-10-22T01:09:45.699Z,99.99
2022-10-22T01:10:45.761Z,99.99
2022-10-22T01:11:45.510Z,99.99
2022-10-22T01:12:45.499Z,99.99
2022-10-22T01:13:46.088Z,99.99
2022-10-22T01:14:45.457Z,99.99
2022-10-22T01:15:45.461Z,99.99
2022-10-22T01:16:45.552Z,99.99
2022-10-22T01:17:46.301Z,99.99
2022-10-22T01:18:45.464Z,99.99
2022-10-22T01:19:45.478Z,99.99
2022-10-22T01:20:45.573Z,99.99
2022-10-22T01:21:45.699Z,99.99
2022-10-22T01:22:45.443Z,99.99
2022-10-22T01:23:45.599Z,99.99
2022-10-22T01:24:45.541Z,99.99
2022-10-22T01:25:45.445Z,99.99
2022-10-22T01:26:45.636Z,99.99
2022-10-22T01:27:45.505Z,99.99
2022-10-22T01:28:45.335Z,99.99
2022-10-22T01:29:45.483Z,99.99
2022-10-22T01:30:45.311Z,99.99
2022-10-22T01:31:45.339Z,99.99
2022-10-22T01:32:45.284Z,99.99
2022-10-22T01:33:45.281Z,99.99
2022-10-22T01:34:45.292Z,99.99
2022-10-22T01:35:45.406Z,99.99
2022-10-22T01:36:45.740Z,99.99
2022-10-22T01:37:45.490Z,99.99
2022-10-22T01:38:45.440Z,99.99
2022-10-22T01:39:45.201Z,99.99
2022-10-22T01:40:45.316Z,99.99
2022-10-22T01:41:45.409Z,99.99
2022-10-22T01:42:45.403Z,99.99
2022-10-22T01:43:45.490Z,99.99
2022-10-22T01:44:45.131Z,99.99
2022-10-22T01:45:45.189Z,99.99
2022-10-22T01:46:45.279Z,99.99
2022-10-22T01:47:45.344Z,99.99
2022-10-22T01:48:45.275Z,99.99
2022-10-22T01:49:45.110Z,99.99
2022-10-22T01:50:45.098Z,99.99
2022-10-22T01:51:45.057Z,99.99
2022-10-22T01:52:45.378Z,99.99
2022-10-22T01:54:45.091Z,99.99
2022-10-22T01:55:45.228Z,99.99
2022-10-22T01:56:45.026Z,99.99
2022-10-22T01:57:45.264Z,99.99
2022-10-22T01:58:45.400Z,99.99
2022-10-22T01:59:45.078Z,99.99
2022-10-22T02:00:45.195Z,99.99
2022-10-22T02:01:45.175Z,99.99
2022-10-22T02:03:45.060Z,99.99
2022-10-22T02:04:45.017Z,99.99
2022-10-22T02:05:45.198Z,99.99
2022-10-22T02:06:45.493Z,99.99
2022-10-22T02:07:45.251Z,99.99
2022-10-22T02:08:45.247Z,99.99
2022-10-22T02:09:45.084Z,99.99
2022-10-22T02:10:45.102Z,99.99
2022-10-22T02:11:44.920Z,99.99
2022-10-22T02:12:45.022Z,99.99
2022-10-22T02:13:44.915Z,99.99
2022-10-22T02:14:44.820Z,99.99
2022-10-22T02:15:44.934Z,99.99
2022-10-22T02:16:44.869Z,99.99
2022-10-22T02:17:45.004Z,99.99
2022-10-22T02:18:45.002Z,99.99
2022-10-22T02:19:45.129Z,99.99
2022-10-22T02:20:44.831Z,99.99
2022-10-22T02:21:44.920Z,99.99
2022-10-22T02:22:45.501Z,99.99
2022-10-22T02:23:44.868Z,99.99
2022-10-22T02:24:45.222Z,99.99
2022-10-22T02:25:44.691Z,99.99
2022-10-22T02:26:44.759Z,99.99
2022-10-22T02:27:44.702Z,99.99
2022-10-22T02:28:44.701Z,99.99
2022-10-22T02:29:44.711Z,99.99
2022-10-22T02:30:44.932Z,99.99
2022-10-22T02:31:44.889Z,99.99
2022-10-22T02:32:45.075Z,99.99
2022-10-22T02:33:44.854Z,99.99
2022-10-22T02:34:44.777Z,99.99
2022-10-22T02:35:44.652Z,99.99
2022-10-22T02:36:48.083Z,99.99
2022-10-22T02:37:44.571Z,99.99
2022-10-22T02:38:44.600Z,99.99
2022-10-22T02:39:44.992Z,99.99
2022-10-22T02:40:44.615Z,99.99
2022-10-22T02:41:44.801Z,99.99
2022-10-22T02:42:44.793Z,99.99
2022-10-22T02:43:44.580Z,99.99
2022-10-22T02:44:44.648Z,99.99
2022-10-22T02:45:44.526Z,99.99
2022-10-22T02:46:44.556Z,99.99
2022-10-22T02:47:44.719Z,99.99
2022-10-22T02:48:44.710Z,99.99
2022-10-22T02:49:44.621Z,99.99
2022-10-22T02:50:44.485Z,99.99
2022-10-22T02:51:44.438Z,99.99
2022-10-22T02:52:44.448Z,99.99
2022-10-22T02:53:44.788Z,99.99
2022-10-22T02:54:44.794Z,99.99
2022-10-22T02:55:44.402Z,99.99
2022-10-22T02:56:44.972Z,99.99
2022-10-22T02:57:44.417Z,99.99
2022-10-22T02:58:44.573Z,99.99
2022-10-22T02:59:44.443Z,99.99
2022-10-22T03:00:44.482Z,99.99
2022-10-22T03:01:44.399Z,99.99
2022-10-22T03:02:44.840Z,99.99
2022-10-22T03:03:44.368Z,99.99
2022-10-22T03:04:44.680Z,99.99
2022-10-22T03:05:44.766Z,99.99
2022-10-22T03:06:45.065Z,99.99
2022-10-22T03:07:44.322Z,99.99
2022-10-22T03:08:44.520Z,99.99
2022-10-22T03:09:44.306Z,99.99
2022-10-22T03:10:44.761Z,99.99
2022-10-22T03:11:44.348Z,99.99
2022-10-22T03:12:44.260Z,99.99
2022-10-22T03:13:44.318Z,99.99
2022-10-22T03:14:44.215Z,99.99
2022-10-22T03:15:44.230Z,99.99
2022-10-22T03:16:44.472Z,99.99
2022-10-22T03:17:44.536Z,99.99
2022-10-22T03:18:44.427Z,99.99
2022-10-22T03:19:44.447Z,99.99
2022-10-22T03:20:44.198Z,99.99
2022-10-22T03:21:44.181Z,99.99
2022-10-22T03:22:44.573Z,99.99
2022-10-22T03:23:44.492Z,99.99
2022-10-22T03:24:44.583Z,99.99
2022-10-22T03:25:44.317Z,99.99
2022-10-22T03:26:44.289Z,99.99
2022-10-22T03:27:44.343Z,99.99
2022-10-22T03:28:44.391Z,99.99
2022-10-22T03:29:44.132Z,99.99
2022-10-22T03:30:44.211Z,99.99
2022-10-22T03:31:44.084Z,99.99
2022-10-22T03:32:44.106Z,99.99
2022-10-22T03:33:44.177Z,99.99
2022-10-22T03:34:44.006Z,99.99
2022-10-22T03:35:44.053Z,99.99
2022-10-22T03:36:44.285Z,99.99
2022-10-22T03:37:44.403Z,99.99
2022-10-22T03:38:44.368Z,99.99
2022-10-22T03:39:43.975Z,99.99
2022-10-22T03:40:44.221Z,99.99
2022-10-22T03:41:43.975Z,99.99
2022-10-22T03:42:44.066Z,99.99
2022-10-22T03:43:44.470Z,99.99
2022-10-22T03:44:43.912Z,99.99
2022-10-22T03:45:43.967Z,99.99
2022-10-22T03:46:43.967Z,99.99
2022-10-22T03:47:43.932Z,99.99
2022-10-22T03:48:43.865Z,99.99
2022-10-22T03:49:43.873Z,99.99
2022-10-22T03:50:44.012Z,99.99
2022-10-22T03:51:44.157Z,99.99
2022-10-22T03:52:43.869Z,99.99
2022-10-22T03:53:44.030Z,99.99
2022-10-22T03:54:43.995Z,99.99
2022-10-22T03:55:43.939Z,99.99
2022-10-22T03:56:43.838Z,99.99
2022-10-22T03:57:43.876Z,99.99
2022-10-22T03:58:43.813Z,99.99
2022-10-22T03:59:44.133Z,99.99
2022-10-22T04:00:44.563Z,99.99
2022-10-22T04:01:43.877Z,99.99
2022-10-22T04:02:44.165Z,99.99
2022-10-22T04:03:43.849Z,99.99
2022-10-22T04:04:43.788Z,99.99
2022-10-22T04:05:43.694Z,99.99
2022-10-22T04:06:43.699Z,99.99
2022-10-22T04:07:44.035Z,99.99
2022-10-22T04:08:44.088Z,99.99
2022-10-22T04:09:43.966Z,99.99
2022-10-22T04:10:43.663Z,99.99
2022-10-22T04:11:43.669Z,99.99
2022-10-22T04:12:43.733Z,99.99
2022-10-22T04:13:43.735Z,99.99
2022-10-22T04:14:43.603Z,99.99
2022-10-22T04:15:43.735Z,99.99
2022-10-22T04:16:43.589Z,99.99
2022-10-22T04:17:43.885Z,99.99
2022-10-22T04:18:43.737Z,99.99
2022-10-22T04:19:43.622Z,99.99
2022-10-22T04:20:43.668Z,99.99
2022-10-22T04:21:43.482Z,99.99
2022-10-22T04:22:43.561Z,99.99
2022-10-22T04:23:44.073Z,99.99
2022-10-22T04:24:43.922Z,99.99
2022-10-22T04:25:43.693Z,99.99
2022-10-22T04:26:43.476Z,99.99
2022-10-22T04:27:43.651Z,99.99
2022-10-22T04:28:43.539Z,99.99
2022-10-22T04:29:43.736Z,99.99
2022-10-22T04:30:43.497Z,99.99
2022-10-22T04:31:43.425Z,99.99
2022-10-22T04:32:43.606Z,99.99
2022-10-22T04:33:43.866Z,99.99
2022-10-22T04:34:43.414Z,99.99
2022-10-22T04:35:43.620Z,99.99
2022-10-22T04:36:43.777Z,99.99
2022-10-22T04:37:43.625Z,99.99
2022-10-22T04:38:43.720Z,99.99
2022-10-22T04:39:43.523Z,99.99
2022-10-22T04:40:43.774Z,99.99
2022-10-22T04:41:43.686Z,99.99
2022-10-22T04:42:43.490Z,99.99
2022-10-22T04:43:43.347Z,99.99
2022-10-22T04:44:44.427Z,99.99
2022-10-22T04:45:43.687Z,99.99
2022-10-22T04:46:43.737Z,99.99
2022-10-22T04:47:43.755Z,99.99
2022-10-22T04:48:43.307Z,99.99
2022-10-22T04:49:43.707Z,99.99
2022-10-22T04:50:43.620Z,99.99
2022-10-22T04:51:43.216Z,99.99
2022-10-22T04:52:43.265Z,99.99
2022-10-22T04:53:43.253Z,99.99
2022-10-22T04:54:43.571Z,99.99
2022-10-22T04:55:43.317Z,99.99
2022-10-22T04:56:43.946Z,99.99
2022-10-22T04:57:43.551Z,99.99
2022-10-22T04:58:43.358Z,99.99
2022-10-22T04:59:43.306Z,99.99
2022-10-22T05:00:43.340Z,99.99
2022-10-22T05:01:43.526Z,99.99
2022-10-22T05:02:43.298Z,99.99
2022-10-22T05:03:43.133Z,99.99
2022-10-22T05:04:43.170Z,99.99
2022-10-22T05:05:43.332Z,99.99
2022-10-22T05:06:43.184Z,99.99
2022-10-22T05:07:43.546Z,99.99
2022-10-22T05:08:43.172Z,99.99
2022-10-22T05:09:43.097Z,99.99
2022-10-22T05:10:43.008Z,99.99
2022-10-22T05:11:43.056Z,99.99
2022-10-22T05:12:43.014Z,99.99
2022-10-22T05:13:43.006Z,99.99
2022-10-22T05:14:44.780Z,99.99
2022-10-22T05:15:43.031Z,99.99
2022-10-22T05:16:43.046Z,99.99
2022-10-22T05:17:43.275Z,99.99
2022-10-22T05:18:42.978Z,99.99
2022-10-22T05:19:42.982Z,99.99
2022-10-22T05:20:42.955Z,99.99
2022-10-22T05:21:42.922Z,99.99
2022-10-22T05:22:42.948Z,99.99
2022-10-22T05:23:42.925Z,99.99
2022-10-22T05:24:42.888Z,99.99
2022-10-22T05:25:42.968Z,99.99
2022-10-22T05:26:43.333Z,99.99
2022-10-22T05:27:43.677Z,99.99
2022-10-22T05:28:43.002Z,99.99
2022-10-22T05:29:43.173Z,99.99
2022-10-22T05:30:43.342Z,99.99
2022-10-22T05:31:42.947Z,99.99
2022-10-22T05:32:43.105Z,99.99
2022-10-22T05:33:42.982Z,99.99
2022-10-22T05:34:43.153Z,99.99
2022-10-22T05:35:46.681Z,99.99
2022-10-22T05:36:43.200Z,99.99
2022-10-22T05:37:43.060Z,99.99
2022-10-22T05:38:42.722Z,99.99
2022-10-22T05:39:42.940Z,99.99
2022-10-22T05:40:43.134Z,99.99
2022-10-22T05:41:42.814Z,99.99
2022-10-22T05:42:43.197Z,99.99
2022-10-22T05:43:42.704Z,99.99
2022-10-22T05:44:42.699Z,99.99
2022-10-22T05:45:42.682Z,99.99
2022-10-22T05:46:42.646Z,99.99
2022-10-22T05:47:42.642Z,99.99
2022-10-22T05:48:42.769Z,99.99
2022-10-22T05:49:43.146Z,99.99
2022-10-22T05:50:42.663Z,99.99
2022-10-22T05:51:42.655Z,99.99
2022-10-22T05:52:43.195Z,99.99
2022-10-22T05:53:42.618Z,99.99
2022-10-22T05:54:42.636Z,99.99
2022-10-22T05:55:42.585Z,99.99
2022-10-22T05:56:42.594Z,99.99
2022-10-22T05:57:42.652Z,99.99
2022-10-22T05:58:42.837Z,99.99
2022-10-22T05:59:43.210Z,99.99
2022-10-22T06:00:42.665Z,99.99
2022-10-22T06:01:42.672Z,99.99
2022-10-22T06:02:42.793Z,99.99
2022-10-22T06:03:42.538Z,99.99
2022-10-22T06:04:42.493Z,99.99
2022-10-22T06:05:42.622Z,99.99
2022-10-22T06:06:42.517Z,99.99
2022-10-22T06:07:42.600Z,99.99
2022-10-22T06:08:42.526Z,99.99
2022-10-22T06:09:42.430Z,99.99
2022-10-22T06:10:42.670Z,99.99
2022-10-22T06:11:42.597Z,99.99
2022-10-22T06:12:42.914Z,99.99
2022-10-22T06:13:42.435Z,99.99
2022-10-22T06:14:43.511Z,99.99
2022-10-22T06:15:42.528Z,99.99
2022-10-22T06:16:42.617Z,99.99
2022-10-22T06:17:42.576Z,99.99
2022-10-22T06:18:42.333Z,99.99
2022-10-22T06:19:42.422Z,99.99
2022-10-22T06:20:42.709Z,99.99
2022-10-22T06:21:42.409Z,99.99
2022-10-22T06:22:42.896Z,99.99
2022-10-22T06:23:42.833Z,99.99
2022-10-22T06:24:45.045Z,99.99
2022-10-22T06:25:42.367Z,99.99
2022-10-22T06:26:42.286Z,99.99
2022-10-22T06:27:42.550Z,99.99
2022-10-22T06:28:42.783Z,99.99
2022-10-22T06:29:42.868Z,99.99
2022-10-22T06:30:44.403Z,99.99
2022-10-22T06:31:42.439Z,99.99
2022-10-22T06:32:43.201Z,99.99
2022-10-22T06:33:42.534Z,99.99
2022-10-22T06:34:42.760Z,99.99
2022-10-22T06:35:42.701Z,99.99
2022-10-22T06:37:43.126Z,99.99
2022-10-22T06:38:42.459Z,99.99
2022-10-22T06:39:42.633Z,99.99
2022-10-22T06:40:42.107Z,99.99
2022-10-22T06:41:42.458Z,99.99
2022-10-22T06:42:42.933Z,99.99
2022-10-22T06:43:42.474Z,99.99
2022-10-22T06:44:42.389Z,99.99
2022-10-22T06:45:42.190Z,99.99
2022-10-22T06:46:43.550Z,99.99
2022-10-22T06:47:43.234Z,99.99
2022-10-22T06:48:42.185Z,99.99
2022-10-22T06:49:42.105Z,99.99
2022-10-22T06:50:42.104Z,99.99
2022-10-22T06:51:42.108Z,99.99
2022-10-22T06:52:42.172Z,99.99
2022-10-22T06:53:42.078Z,99.99
2022-10-22T06:54:42.002Z,99.99
2022-10-22T06:55:41.999Z,99.99
2022-10-22T06:56:42.202Z,99.99
2022-10-22T06:57:42.405Z,99.99
2022-10-22T06:58:41.941Z,99.99
2022-10-22T06:59:42.087Z,99.99
2022-10-22T07:00:42.336Z,99.99
2022-10-22T07:01:42.246Z,99.99
2022-10-22T07:02:42.206Z,99.99
2022-10-22T07:03:41.925Z,99.99
2022-10-22T07:04:42.091Z,99.99
2022-10-22T07:05:42.008Z,99.99
2022-10-22T07:06:41.958Z,99.99
2022-10-22T07:07:41.866Z,99.99
2022-10-22T07:08:41.892Z,99.99
2022-10-22T07:09:42.032Z,99.99
2022-10-22T07:10:42.001Z,99.99
2022-10-22T07:11:42.212Z,99.99
2022-10-22T07:12:41.996Z,99.99
2022-10-22T07:13:41.780Z,99.99
2022-10-22T07:14:41.816Z,99.99
2022-10-22T07:15:41.752Z,99.99
2022-10-22T07:16:41.773Z,99.99
2022-10-22T07:17:42.189Z,99.99
2022-10-22T07:18:41.763Z,99.99
2022-10-22T07:19:41.796Z,99.60
2022-10-22T07:20:42.267Z,99.19
2022-10-22T07:21:41.843Z,98.44
2022-10-22T07:22:42.414Z,98.34
2022-10-22T07:23:41.906Z,98.65
2022-10-22T07:24:41.746Z,98.54
2022-10-22T07:25:42.103Z,97.89
2022-10-22T07:26:41.711Z,96.07
2022-10-22T07:27:42.442Z,96.37
2022-10-22T07:28:41.643Z,97.44
2022-10-22T07:29:41.719Z,97.14
2022-10-22T07:30:41.575Z,95.72
2022-10-22T07:31:41.583Z,95.21
2022-10-22T07:32:41.542Z,93.95
2022-10-22T07:33:41.563Z,94.15
2022-10-22T07:34:43.161Z,93.55
2022-10-22T07:35:41.587Z,94.56
2022-10-22T07:36:41.599Z,93.04
2022-10-22T07:37:42.561Z,92.54
2022-10-22T07:38:41.509Z,93.35
2022-10-22T07:39:41.652Z,93.15
2022-10-22T07:40:41.483Z,93.15
2022-10-22T07:41:41.561Z,93.44
2022-10-22T07:42:41.972Z,93.44
2022-10-22T07:43:42.162Z,94.06
2022-10-22T07:44:42.077Z,94.56
2022-10-22T07:45:41.445Z,94.66
2022-10-22T07:46:42.750Z,94.56
2022-10-22T07:47:41.780Z,94.66
2022-10-22T07:48:42.090Z,94.96
2022-10-22T07:49:41.438Z,93.90
2022-10-22T07:50:41.678Z,94.60
2022-10-22T07:51:41.888Z,94.60
2022-10-22T07:52:41.912Z,94.00
2022-10-22T07:53:41.423Z,94.60
2022-10-22T07:54:41.614Z,94.40
2022-10-22T07:55:41.623Z,93.19
2022-10-22T07:56:41.416Z,93.49
2022-10-22T07:57:41.318Z,94.10
2022-10-22T07:58:41.558Z,94.71
2022-10-22T07:59:41.341Z,94.06
2022-10-22T08:00:41.321Z,93.55
2022-10-22T08:01:41.494Z,93.65
2022-10-22T08:02:41.703Z,92.13
2022-10-22T08:03:41.285Z,92.44
2022-10-22T08:04:41.428Z,92.03
2022-10-22T08:05:41.287Z,92.54
2022-10-22T08:06:44.566Z,93.55
2022-10-22T08:07:41.481Z,92.44
2022-10-22T08:08:42.122Z,92.94
2022-10-22T08:09:41.490Z,91.73
2022-10-22T08:10:41.253Z,91.42
2022-10-22T08:11:41.374Z,91.53
2022-10-22T08:12:41.905Z,92.94
2022-10-22T08:13:45.076Z,93.04
2022-10-22T08:14:41.212Z,93.51
2022-10-22T08:15:41.427Z,92.90
2022-10-22T08:16:41.427Z,91.42
2022-10-22T08:17:41.384Z,92.03
2022-10-22T08:18:41.560Z,92.44
2022-10-22T08:19:41.452Z,92.69
2022-10-22T08:20:41.168Z,91.69
2022-10-22T08:21:41.155Z,91.49
2022-10-22T08:22:41.186Z,92.19
2022-10-22T08:23:41.270Z,92.29
2022-10-22T08:24:41.393Z,91.99
2022-10-22T08:25:41.246Z,92.09
2022-10-22T08:26:41.396Z,91.54
2022-10-22T08:27:41.648Z,90.33
2022-10-22T08:28:41.102Z,91.24
2022-10-22T08:29:41.653Z,91.74
2022-10-22T08:30:41.157Z,91.14
2022-10-22T08:31:41.533Z,91.34
2022-10-22T08:32:41.146Z,91.14
2022-10-22T08:33:41.154Z,92.05
2022-10-22T08:34:41.467Z,92.14
2022-10-22T08:35:41.263Z,90.53
2022-10-22T08:36:41.436Z,90.27
2022-10-22T08:37:41.575Z,89.76
2022-10-22T08:38:40.923Z,90.07
2022-10-22T08:39:40.979Z,90.37
2022-10-22T08:40:41.169Z,90.67
2022-10-22T08:41:41.176Z,91.18
2022-10-22T08:42:41.255Z,91.38
2022-10-22T08:43:40.969Z,89.76
2022-10-22T08:44:40.971Z,91.18
2022-10-22T08:45:41.387Z,90.98
2022-10-22T08:46:41.090Z,89.56
2022-10-22T08:47:41.117Z,90.67
2022-10-22T08:48:40.864Z,90.47
2022-10-22T08:49:42.133Z,91.08
2022-10-22T08:50:40.790Z,89.16
2022-10-22T08:51:40.800Z,90.88
2022-10-22T08:52:41.122Z,90.47
2022-10-22T08:53:40.834Z,90.01
2022-10-22T08:54:40.764Z,90.01
2022-10-22T08:55:40.773Z,90.58
2022-10-22T08:56:40.750Z,90.47
2022-10-22T08:57:40.958Z,89.97
2022-10-22T08:58:40.739Z,89.06
2022-10-22T08:59:40.874Z,90.47
2022-10-22T09:00:40.727Z,90.67
2022-10-22T09:01:40.858Z,91.38
2022-10-22T09:02:40.984Z,90.37
2022-10-22T09:03:40.738Z,90.88
2022-10-22T09:04:40.865Z,90.37
2022-10-22T09:05:40.782Z,88.35
2022-10-22T09:06:40.782Z,88.65
2022-10-22T09:07:40.943Z,89.26
2022-10-22T09:08:40.706Z,89.92
2022-10-22T09:09:41.002Z,89.42
2022-10-22T09:10:40.623Z,88.21
2022-10-22T09:11:40.982Z,88.92
2022-10-22T09:12:40.582Z,88.92
2022-10-22T09:13:40.822Z,89.32
2022-10-22T09:14:40.893Z,88.92
2022-10-22T09:15:42.629Z,88.61
2022-10-22T09:16:40.569Z,88.81
2022-10-22T09:17:41.554Z,88.61
2022-10-22T09:18:40.817Z,88.77
2022-10-22T09:19:40.518Z,88.57
2022-10-22T09:20:40.686Z,88.47
2022-10-22T09:21:40.482Z,86.85
2022-10-22T09:22:40.507Z,88.26
2022-10-22T09:23:40.882Z,88.17
2022-10-22T09:24:40.476Z,88.77
2022-10-22T09:25:40.548Z,88.26
2022-10-22T09:26:41.375Z,88.21
2022-10-22T09:27:40.962Z,89.12
2022-10-22T09:28:40.451Z,87.19
2022-10-22T09:29:40.445Z,87.60
2022-10-22T09:30:40.548Z,87.40
2022-10-22T09:31:40.371Z,87.90
2022-10-22T09:32:40.659Z,88.01
2022-10-22T09:33:40.391Z,86.69
2022-10-22T09:34:40.409Z,87.86
2022-10-22T09:35:41.084Z,88.06
2022-10-22T09:36:40.409Z,88.26
2022-10-22T09:37:40.338Z,87.76
2022-10-22T09:38:40.547Z,87.76
2022-10-22T09:39:40.502Z,87.96
2022-10-22T09:40:40.423Z,86.15
2022-10-22T09:41:40.377Z,87.56
2022-10-22T09:42:40.629Z,87.36
2022-10-22T09:43:40.264Z,86.65
2022-10-22T09:44:42.727Z,87.05
2022-10-22T09:45:40.568Z,87.46
2022-10-22T09:46:40.357Z,86.95
2022-10-22T09:48:40.559Z,86.85
2022-10-22T09:49:40.215Z,87.56
2022-10-22T09:50:40.225Z,87.26
2022-10-22T09:51:40.463Z,87.05
2022-10-22T09:52:40.682Z,87.26
2022-10-22T09:53:40.790Z,86.85
2022-10-22T09:54:40.326Z,86.15
2022-10-22T09:55:40.301Z,87.46
2022-10-22T09:56:40.390Z,87.46
2022-10-22T09:57:42.356Z,86.15
2022-10-22T09:58:40.677Z,86.65
2022-10-22T09:59:40.192Z,87.76
2022-10-22T10:00:40.161Z,86.75
2022-10-22T10:01:40.078Z,86.25
2022-10-22T10:02:40.077Z,86.25
2022-10-22T10:03:40.091Z,86.35
2022-10-22T10:04:40.606Z,87.36
2022-10-22T10:05:41.158Z,85.14
2022-10-22T10:06:40.672Z,85.60
2022-10-22T10:07:40.641Z,87.01
2022-10-22T10:08:40.447Z,86.21
2022-10-22T10:09:40.087Z,84.79
2022-10-22T10:10:39.990Z,85.50
2022-10-22T10:11:40.190Z,85.90
2022-10-22T10:12:40.061Z,85.19
2022-10-22T10:13:40.155Z,85.80
2022-10-22T10:14:39.994Z,86.61
2022-10-22T10:15:40.019Z,86.21
2022-10-22T10:16:40.290Z,86.91
2022-10-22T10:17:40.635Z,87.41
2022-10-22T10:18:39.963Z,87.32
2022-10-22T10:19:40.117Z,87.32
2022-10-22T10:20:40.005Z,85.90
2022-10-22T10:21:40.595Z,85.60
2022-10-22T10:22:40.400Z,85.40
2022-10-22T10:23:40.332Z,85.10
2022-10-22T10:24:40.035Z,85.66
2022-10-22T10:25:40.127Z,85.05
2022-10-22T10:26:39.874Z,86.16
2022-10-22T10:27:39.877Z,84.89
2022-10-22T10:28:39.841Z,86.27
2022-10-22T10:29:39.838Z,85.66
2022-10-22T10:30:39.808Z,86.47
2022-10-22T10:31:40.124Z,84.85
2022-10-22T10:32:40.315Z,85.16
2022-10-22T10:33:39.868Z,84.25
2022-10-22T10:34:39.745Z,85.42
2022-10-22T10:35:39.915Z,85.72
2022-10-22T10:36:39.726Z,84.97
2022-10-22T10:37:39.724Z,84.23
2022-10-22T10:38:39.744Z,82.31
2022-10-22T10:39:39.704Z,82.68
2022-10-22T10:40:40.057Z,82.28
2022-10-22T10:41:39.708Z,81.93
2022-10-22T10:42:40.073Z,81.84
2022-10-22T10:43:39.717Z,80.22
2022-10-22T10:44:39.862Z,80.63
2022-10-22T10:45:39.631Z,82.64
2022-10-22T10:46:39.882Z,80.63
2022-10-22T10:47:40.189Z,81.63
2022-10-22T10:48:39.775Z,81.03
2022-10-22T10:49:39.646Z,81.07
2022-10-22T10:50:39.712Z,81.27
2022-10-22T10:51:39.614Z,80.46
2022-10-22T10:52:39.917Z,80.87
2022-10-22T10:53:39.724Z,80.90
2022-10-22T10:54:39.867Z,81.61
2022-10-22T10:55:39.908Z,81.51
2022-10-22T10:56:39.635Z,81.30
2022-10-22T10:57:40.069Z,82.92
2022-10-22T10:58:39.565Z,81.30
2022-10-22T10:59:39.516Z,82.82
2022-10-22T11:00:39.806Z,83.93
2022-10-22T11:01:39.648Z,84.33
2022-10-22T11:02:39.658Z,81.81
2022-10-22T11:03:39.481Z,81.61
2022-10-22T11:04:39.820Z,82.45
2022-10-22T11:05:39.491Z,82.15
2022-10-22T11:06:39.575Z,82.25
2022-10-22T11:07:39.663Z,82.35
2022-10-22T11:08:39.663Z,81.35
2022-10-22T11:09:39.702Z,82.45
2022-10-22T11:10:39.643Z,81.75
2022-10-22T11:11:39.847Z,83.06
2022-10-22T11:12:39.691Z,84.17
2022-10-22T11:13:39.375Z,81.75
2022-10-22T11:14:39.379Z,82.25
2022-10-22T11:15:39.333Z,81.65
2022-10-22T11:16:39.421Z,83.36
2022-10-22T11:17:39.636Z,84.77
2022-10-22T11:18:39.327Z,83.66
2022-10-22T11:19:50.929Z,81.51
2022-10-22T11:20:39.491Z,82.42
2022-10-22T11:21:39.329Z,81.30
2022-10-22T11:22:44.478Z,81.30
2022-10-22T11:23:39.300Z,79.60
2022-10-22T11:24:39.296Z,80.87
2022-10-22T11:25:39.282Z,81.47
2022-10-22T11:26:39.309Z,80.32
2022-10-22T11:27:39.696Z,79.52
2022-10-22T11:28:39.801Z,79.32
2022-10-22T11:29:39.297Z,81.93
2022-10-22T11:30:39.422Z,80.73
2022-10-22T11:31:39.199Z,79.22
2022-10-22T11:32:39.603Z,80.32
2022-10-22T11:33:39.342Z,80.43
2022-10-22T11:34:39.185Z,78.91
2022-10-22T11:35:39.353Z,80.02
2022-10-22T11:36:39.398Z,80.43
2022-10-22T11:37:39.649Z,81.23
2022-10-22T11:38:39.543Z,79.42
2022-10-22T11:39:39.179Z,79.42
2022-10-22T11:40:39.107Z,80.83
2022-10-22T11:41:39.467Z,80.08
2022-10-22T11:42:39.173Z,79.02
2022-10-22T11:43:39.136Z,79.11
2022-10-22T11:44:39.688Z,79.42
2022-10-22T11:45:39.443Z,81.23
2022-10-22T11:46:39.174Z,80.63
2022-10-22T11:47:39.410Z,78.15
2022-10-22T11:48:39.122Z,78.89
2022-10-22T11:49:39.279Z,79.90
2022-10-22T11:50:39.062Z,80.20
2022-10-22T11:51:39.234Z,81.35
2022-10-22T11:52:39.375Z,80.24
2022-10-22T11:53:39.383Z,80.94
2022-10-22T11:54:39.203Z,80.58
2022-10-22T11:55:39.400Z,81.38
2022-10-22T11:56:39.312Z,81.48
2022-10-22T11:57:39.396Z,80.58
2022-10-22T11:58:38.908Z,80.88
2022-10-22T11:59:38.942Z,82.09
2022-10-22T12:00:39.981Z,81.79
2022-10-22T12:01:38.887Z,83.70
2022-10-22T12:02:38.992Z,83.80
2022-10-22T12:03:38.851Z,81.18
2022-10-22T12:04:38.882Z,81.48
2022-10-22T12:05:39.420Z,83.24
2022-10-22T12:06:39.055Z,83.34
2022-10-22T12:07:38.803Z,81.82
2022-10-22T12:08:38.870Z,82.53
2022-10-22T12:09:38.965Z,83.54
2022-10-22T12:10:38.825Z,83.74
2022-10-22T12:11:38.809Z,83.84
2022-10-22T12:12:39.033Z,84.05
2022-10-22T12:13:38.771Z,82.84
2022-10-22T12:14:38.968Z,82.13
2022-10-22T12:15:38.725Z,83.34
2022-10-22T12:16:55.208Z,83.64
2022-10-22T12:17:38.902Z,82.53
2022-10-22T12:18:38.705Z,83.04
2022-10-22T12:19:38.937Z,82.53
2022-10-22T12:20:38.716Z,82.03
2022-10-22T12:21:38.697Z,81.12
2022-10-22T12:22:38.929Z,82.64
2022-10-22T12:23:38.826Z,82.59
2022-10-22T12:24:38.819Z,83.20
2022-10-22T12:25:38.676Z,83.80
2022-10-22T12:26:38.794Z,83.50
2022-10-22T12:27:38.914Z,81.59
2022-10-22T12:28:38.787Z,82.59
2022-10-22T12:29:39.177Z,82.70
2022-10-22T12:30:38.658Z,82.70
2022-10-22T12:31:38.973Z,82.79
2022-10-22T12:32:38.587Z,84.07
2022-10-22T12:33:38.605Z,82.96
2022-10-22T12:34:38.849Z,82.65
2022-10-22T12:35:38.945Z,80.54
2022-10-22T12:36:38.965Z,82.56
2022-10-22T12:37:38.946Z,82.71
2022-10-22T12:38:38.595Z,81.81
2022-10-22T12:39:38.593Z,81.51
2022-10-22T12:40:38.522Z,81.51
2022-10-22T12:41:38.503Z,82.42
2022-10-22T12:42:38.851Z,81.91
2022-10-22T12:43:38.761Z,81.30
2022-10-22T12:44:38.744Z,81.71
2022-10-22T12:45:38.478Z,80.00
2022-10-22T12:46:38.846Z,80.30
2022-10-22T12:47:38.945Z,80.30
2022-10-22T12:48:38.560Z,80.40
2022-10-22T12:49:38.514Z,79.39
2022-10-22T12:50:38.678Z,80.10
2022-10-22T12:51:38.629Z,80.13
2022-10-22T12:52:38.844Z,80.70
2022-10-22T12:53:38.464Z,80.70
2022-10-22T12:54:38.336Z,79.39
2022-10-22T12:55:38.356Z,79.60
2022-10-22T12:56:38.362Z,81.01
2022-10-22T12:57:38.348Z,81.10